createdAt,value
2022-12-08T00:01:57.734Z,13.75
2022-12-08T00:04:26.313Z,14.50
2022-12-08T00:07:13.202Z,12.75
2022-12-08T00:09:42.374Z,14.75
2022-12-08T00:12:13.466Z,15.00
2022-12-08T00:14:44.632Z,12.25
2022-12-08T00:17:15.309Z,14.25
2022-12-08T00:19:43.869Z,14.50
2022-12-08T00:22:15.562Z,13.75
2022-12-08T00:24:46.743Z,14.50
2022-12-08T00:27:15.997Z,13.75
2022-12-08T00:29:45.845Z,14.00
2022-12-08T00:32:14.083Z,13.50
2022-12-08T00:34:42.775Z,13.50
2022-12-08T00:37:10.933Z,14.25
2022-12-08T00:39:40.305Z,13.00
2022-12-08T00:42:14.608Z,14.75
2022-12-08T00:44:45.322Z,12.50
2022-12-08T00:47:14.640Z,12.00
2022-12-08T00:49:44.185Z,14.00
2022-12-08T00:52:13.244Z,13.00
2022-12-08T00:54:41.807Z,13.50
2022-12-08T00:57:10.355Z,12.25
2022-12-08T00:59:40.323Z,11.50
2022-12-08T01:02:08.412Z,12.75
2022-12-08T01:04:38.832Z,12.50
2022-12-08T01:07:07.054Z,12.67
2022-12-08T01:09:35.553Z,13.50
2022-12-08T01:12:03.797Z,13.67
2022-12-08T01:14:32.413Z,12.75
2022-12-08T01:17:00.595Z,12.75
2022-12-08T01:19:29.265Z,13.00
2022-12-08T01:21:57.554Z,13.25
2022-12-08T01:24:26.885Z,13.33
2022-12-08T01:26:55.042Z,12.50
2022-12-08T01:29:23.552Z,12.50
2022-12-08T01:31:51.722Z,12.75
2022-12-08T01:34:20.093Z,12.50
2022-12-08T01:36:48.423Z,12.25
2022-12-08T01:39:18.455Z,12.50
2022-12-08T01:41:47.952Z,11.50
2022-12-08T01:44:16.192Z,12.50
2022-12-08T01:46:46.122Z,12.00
2022-12-08T01:49:23.305Z,13.00
2022-12-08T01:52:12.272Z,12.00
2022-12-08T01:54:48.078Z,12.75
2022-12-08T01:57:24.091Z,11.75
2022-12-08T02:00:02.880Z,13.25
2022-12-08T02:03:01.032Z,11.00
2022-12-08T02:05:34.556Z,12.50
2022-12-08T02:08:07.013Z,12.33
2022-12-08T02:10:38.633Z,12.00
2022-12-08T02:13:13.346Z,12.25
2022-12-08T02:15:41.846Z,12.00
2022-12-08T02:18:28.594Z,11.50
2022-12-08T02:21:13.687Z,13.00
2022-12-08T02:23:50.780Z,12.50
2022-12-08T02:26:38.551Z,12.00
2022-12-08T02:29:27.998Z,12.50
2022-12-08T02:32:12.594Z,12.00
2022-12-08T02:34:59.762Z,12.75
2022-12-08T02:37:28.161Z,11.75
2022-12-08T02:40:04.573Z,13.00
2022-12-08T02:42:38.841Z,11.25
2022-12-08T02:45:09.569Z,12.00
2022-12-08T02:47:39.816Z,11.75
2022-12-08T02:50:08.613Z,11.33
2022-12-08T02:52:43.341Z,11.33
2022-12-08T02:55:28.531Z,11.00
2022-12-08T02:58:16.231Z,11.25
2022-12-08T03:01:09.445Z,12.00
2022-12-08T03:03:52.606Z,11.50
2022-12-08T03:06:39.616Z,11.75
2022-12-08T03:09:17.960Z,12.00
2022-12-08T03:11:57.023Z,11.00
2022-12-08T03:14:25.809Z,11.50
2022-12-08T03:16:56.289Z,12.00
2022-12-08T03:19:29.232Z,12.33
2022-12-08T03:22:03.489Z,12.25
2022-12-08T03:24:37.044Z,11.00
2022-12-08T03:27:09.290Z,11.00
2022-12-08T03:29:38.064Z,11.25
2022-12-08T03:32:13.449Z,13.25
2022-12-08T03:34:44.690Z,11.25
2022-12-08T03:37:14.020Z,12.50
2022-12-08T03:39:43.189Z,12.75
2022-12-08T03:42:11.528Z,13.00
2022-12-08T03:44:41.194Z,12.25
2022-12-08T03:47:09.410Z,12.33
2022-12-08T03:49:38.101Z,11.75
2022-12-08T03:52:06.443Z,12.00
2022-12-08T03:54:36.270Z,12.33
2022-12-08T03:57:04.551Z,11.00
2022-12-08T03:59:33.902Z,12.75
2022-12-08T04:02:02.230Z,12.00
2022-12-08T04:04:31.389Z,11.75
2022-12-08T04:06:59.651Z,11.25
2022-12-08T04:09:28.251Z,11.33
2022-12-08T04:11:56.531Z,11.50
2022-12-08T04:14:26.323Z,10.75
2022-12-08T04:16:54.549Z,11.25
2022-12-08T04:19:23.114Z,11.25
2022-12-08T04:21:52.160Z,12.25
2022-12-08T04:24:20.818Z,10.75
2022-12-08T04:26:50.269Z,12.00
2022-12-08T04:29:18.968Z,10.67
2022-12-08T04:31:47.251Z,11.25
2022-12-08T04:34:17.099Z,10.75
2022-12-08T04:36:45.380Z,11.25
2022-12-08T04:39:13.900Z,11.50
2022-12-08T04:41:42.099Z,10.50
2022-12-08T04:44:10.721Z,12.00
2022-12-08T04:46:43.116Z,10.67
2022-12-08T04:49:13.511Z,10.67
2022-12-08T04:51:42.370Z,10.67
2022-12-08T04:54:10.991Z,11.00
2022-12-08T04:56:39.241Z,10.00
2022-12-08T04:59:07.802Z,11.00
2022-12-08T05:01:36.095Z,11.33
2022-12-08T05:04:04.969Z,11.25
2022-12-08T05:06:33.213Z,11.25
2022-12-08T05:09:01.870Z,10.75
2022-12-08T05:11:30.101Z,11.00
2022-12-08T05:13:58.760Z,10.00
2022-12-08T05:16:27.037Z,11.33
2022-12-08T05:18:55.670Z,11.25
2022-12-08T05:21:24.767Z,10.00
2022-12-08T05:23:53.456Z,11.25
2022-12-08T05:26:21.619Z,11.00
2022-12-08T05:28:50.159Z,11.50
2022-12-08T05:31:18.474Z,10.50
2022-12-08T05:33:47.138Z,11.00
2022-12-08T05:36:16.470Z,11.00
2022-12-08T05:38:45.534Z,10.33
2022-12-08T05:41:15.999Z,10.25
2022-12-08T05:43:45.201Z,11.00
2022-12-08T05:46:14.409Z,10.75
2022-12-08T05:48:43.432Z,10.75
2022-12-08T05:51:22.598Z,11.50
2022-12-08T05:53:52.423Z,11.25
2022-12-08T05:56:21.453Z,10.00
2022-12-08T05:58:50.479Z,10.67
2022-12-08T06:01:32.143Z,10.75
2022-12-08T06:04:02.192Z,10.00
2022-12-08T06:06:31.005Z,10.50
2022-12-08T06:08:59.552Z,11.50
2022-12-08T06:11:29.886Z,11.75
2022-12-08T06:13:59.300Z,10.00
2022-12-08T06:16:28.278Z,10.75
2022-12-08T06:18:57.220Z,10.00
2022-12-08T06:21:25.552Z,10.75
2022-12-08T06:23:55.060Z,10.00
2022-12-08T06:26:23.829Z,10.00
2022-12-08T06:28:53.580Z,10.25
2022-12-08T06:31:26.579Z,10.00
2022-12-08T06:33:55.769Z,10.25
2022-12-08T06:36:26.374Z,11.00
2022-12-08T06:38:55.403Z,11.67
2022-12-08T06:41:24.504Z,10.25
2022-12-08T06:43:57.442Z,10.50
2022-12-08T06:46:25.832Z,10.75
2022-12-08T06:48:54.612Z,9.67
2022-12-08T06:51:25.820Z,10.67
2022-12-08T06:53:55.419Z,9.33
2022-12-08T06:56:28.279Z,11.67
2022-12-08T06:58:56.952Z,10.00
2022-12-08T07:01:26.117Z,11.00
2022-12-08T07:03:54.744Z,10.50
2022-12-08T07:06:24.549Z,10.00
2022-12-08T07:08:53.237Z,11.50
2022-12-08T07:11:22.830Z,10.25
2022-12-08T07:13:52.158Z,10.33
2022-12-08T07:16:20.447Z,11.50
2022-12-08T07:18:49.426Z,12.00
2022-12-08T07:21:18.211Z,11.67
2022-12-08T07:23:52.702Z,11.00
2022-12-08T07:26:27.402Z,11.50
2022-12-08T07:28:55.935Z,12.00
2022-12-08T07:31:25.655Z,12.00
2022-12-08T07:33:57.422Z,11.50
2022-12-08T07:36:26.201Z,11.00
2022-12-08T07:38:54.820Z,11.25
2022-12-08T07:41:24.515Z,11.25
2022-12-08T07:43:54.542Z,10.50
2022-12-08T07:46:24.491Z,11.50
2022-12-08T07:48:54.182Z,10.25
2022-12-08T07:51:22.340Z,12.00
2022-12-08T07:53:54.183Z,10.75
2022-12-08T07:56:23.354Z,10.00
2022-12-08T07:58:52.013Z,11.50
2022-12-08T08:01:26.285Z,11.50
2022-12-08T08:03:57.083Z,11.00
2022-12-08T08:06:25.430Z,10.50
2022-12-08T08:08:55.091Z,11.50
2022-12-08T08:11:23.950Z,11.00
2022-12-08T08:13:53.923Z,9.75
2022-12-08T08:16:22.137Z,11.00
2022-12-08T08:18:51.791Z,11.00
2022-12-08T08:24:09.643Z,10.25
2022-12-08T08:26:38.190Z,10.75
2022-12-08T08:29:06.722Z,11.00
2022-12-08T08:31:34.832Z,10.75
2022-12-08T08:34:06.612Z,10.00
2022-12-08T08:36:35.002Z,10.67
2022-12-08T08:39:04.835Z,9.33
2022-12-08T08:41:33.546Z,10.75
2022-12-08T08:44:02.065Z,11.00
2022-12-08T08:46:30.320Z,10.00
2022-12-08T08:48:59.022Z,11.00
2022-12-08T08:51:27.125Z,11.00
2022-12-08T08:53:55.653Z,10.00
2022-12-08T08:56:24.443Z,11.25
2022-12-08T08:58:54.414Z,11.25
2022-12-08T09:01:25.948Z,11.00
2022-12-08T09:03:55.279Z,11.50
2022-12-08T09:06:24.702Z,12.00
2022-12-08T09:08:53.208Z,11.25
2022-12-08T09:11:23.633Z,12.33
2022-12-08T09:13:54.293Z,11.50
2022-12-08T09:16:23.114Z,11.50
2022-12-08T09:18:51.840Z,12.50
2022-12-08T09:21:23.253Z,11.50
2022-12-08T09:23:56.193Z,10.75
2022-12-08T09:26:27.127Z,11.00
2022-12-08T09:28:56.676Z,11.00
2022-12-08T09:31:25.226Z,10.50
2022-12-08T09:33:54.867Z,11.75
2022-12-08T09:36:23.155Z,11.00
2022-12-08T09:38:53.926Z,11.50
2022-12-08T09:41:48.540Z,11.75
2022-12-08T09:44:42.399Z,12.00
2022-12-08T09:47:27.484Z,12.33
2022-12-08T09:50:39.688Z,11.50
2022-12-08T09:53:17.262Z,12.00
2022-12-08T09:56:06.561Z,12.75
2022-12-08T09:58:45.540Z,11.50
2022-12-08T10:01:14.350Z,11.50
2022-12-08T10:03:42.992Z,13.00
2022-12-08T10:06:36.420Z,12.75
2022-12-08T10:09:46.592Z,11.00
2022-12-08T10:12:15.096Z,12.50
2022-12-08T10:14:56.203Z,13.00
2022-12-08T10:17:28.350Z,12.75
2022-12-08T10:20:03.885Z,11.00
2022-12-08T10:22:38.681Z,12.50
2022-12-08T10:25:19.561Z,12.75
2022-12-08T10:27:53.239Z,12.67
2022-12-08T10:30:22.475Z,12.75
2022-12-08T10:32:53.350Z,14.00
2022-12-08T10:35:23.441Z,13.25
2022-12-08T10:37:57.706Z,13.75
2022-12-08T10:40:37.997Z,13.25
2022-12-08T10:43:21.252Z,13.50
2022-12-08T10:45:49.523Z,13.00
2022-12-08T10:48:27.236Z,13.00
2022-12-08T10:50:59.051Z,12.33
2022-12-08T10:53:28.862Z,13.50
2022-12-08T10:56:03.039Z,14.00
2022-12-08T10:58:36.380Z,13.67
2022-12-08T11:01:10.555Z,13.75
2022-12-08T11:03:52.908Z,13.75
2022-12-08T11:06:36.419Z,13.50
2022-12-08T11:09:25.492Z,14.50
2022-12-08T11:11:57.474Z,15.00
2022-12-08T11:14:45.131Z,12.25
2022-12-08T11:17:22.323Z,14.33
2022-12-08T11:20:08.919Z,15.00
2022-12-08T11:22:42.632Z,13.25
2022-12-08T11:25:27.244Z,13.50
2022-12-08T11:28:00.600Z,12.75
2022-12-08T11:30:38.519Z,12.33
2022-12-08T11:33:19.949Z,13.75
2022-12-08T11:36:03.191Z,13.25
2022-12-08T11:38:32.751Z,14.00
2022-12-08T11:41:07.456Z,14.25
2022-12-08T11:43:55.150Z,13.50
2022-12-08T11:46:49.603Z,14.50
2022-12-08T11:49:19.143Z,14.75
2022-12-08T11:51:57.524Z,13.33
2022-12-08T11:54:35.799Z,12.67
2022-12-08T11:57:08.252Z,14.00
2022-12-08T11:59:40.083Z,14.00
2022-12-08T12:02:27.073Z,14.25
2022-12-08T12:05:07.726Z,13.50
2022-12-08T12:08:02.114Z,13.50
2022-12-08T12:10:36.363Z,13.25
2022-12-08T12:13:23.438Z,15.00
2022-12-08T12:16:13.497Z,15.75
2022-12-08T12:19:02.920Z,15.25
2022-12-08T12:21:35.544Z,15.00
2022-12-08T12:24:11.332Z,14.50
2022-12-08T12:26:54.687Z,15.33
2022-12-08T12:29:28.376Z,13.33
2022-12-08T12:32:00.527Z,14.25
2022-12-08T12:34:34.696Z,13.00
2022-12-08T12:37:11.380Z,13.67
2022-12-08T12:39:57.731Z,15.00
2022-12-08T12:42:49.702Z,14.00
2022-12-08T12:45:18.263Z,14.00
2022-12-08T12:47:56.598Z,15.50
2022-12-08T12:50:34.522Z,14.00
2022-12-08T12:53:13.599Z,15.25
2022-12-08T12:56:00.497Z,15.50
2022-12-08T12:58:28.743Z,14.00
2022-12-08T13:01:15.492Z,14.25
2022-12-08T13:03:47.640Z,15.00
2022-12-08T13:06:38.047Z,13.33
2022-12-08T13:09:08.357Z,14.00
2022-12-08T13:11:48.054Z,13.00
2022-12-08T13:14:30.122Z,14.25
2022-12-08T13:17:00.637Z,13.50
2022-12-08T13:19:32.319Z,13.25
2022-12-08T13:22:01.563Z,14.00
2022-12-08T13:24:33.788Z,15.00
2022-12-08T13:27:05.440Z,13.00
2022-12-08T13:29:38.814Z,13.75
2022-12-08T13:32:09.395Z,13.75
2022-12-08T13:34:53.643Z,13.00
2022-12-08T13:37:54.333Z,13.50
2022-12-08T13:40:26.194Z,13.75
2022-12-08T13:43:13.843Z,13.67
2022-12-08T13:46:52.969Z,13.25
2022-12-08T13:56:16.753Z,13.50
2022-12-08T13:57:34.894Z,14.50
2022-12-08T14:00:07.946Z,14.00
2022-12-08T14:02:47.711Z,14.00
2022-12-08T14:05:30.056Z,13.75
2022-12-08T14:08:36.305Z,14.50
2022-12-08T14:11:33.833Z,13.33
2022-12-08T14:14:09.472Z,13.50
2022-12-08T14:16:41.010Z,13.50
2022-12-08T14:19:20.372Z,13.00
2022-12-08T14:21:57.041Z,13.50
2022-12-08T14:24:27.142Z,14.50
2022-12-08T14:27:01.554Z,14.33
2022-12-08T14:29:50.660Z,14.25
2022-12-08T14:32:34.963Z,12.75
2022-12-08T14:35:09.102Z,13.25
2022-12-08T14:38:12.718Z,14.25
2022-12-08T14:40:43.963Z,13.25
2022-12-08T14:43:15.183Z,14.75
2022-12-08T14:45:43.502Z,15.50
2022-12-08T14:48:38.913Z,12.75
2022-12-08T14:51:13.624Z,13.75
2022-12-08T14:53:48.139Z,14.50
2022-12-08T14:56:39.819Z,13.50
2022-12-08T14:59:13.507Z,13.00
2022-12-08T15:01:43.183Z,14.75
2022-12-08T15:04:15.194Z,14.50
2022-12-08T15:07:07.178Z,14.33
2022-12-08T15:09:47.452Z,14.75
2022-12-08T15:12:15.887Z,15.00
2022-12-08T15:14:56.523Z,14.50
2022-12-08T15:17:50.423Z,15.00
2022-12-08T15:20:45.162Z,14.25
2022-12-08T15:23:28.173Z,14.50
2022-12-08T15:25:57.892Z,15.00
2022-12-08T15:28:30.219Z,15.33
2022-12-08T15:30:59.649Z,14.25
2022-12-08T15:33:28.248Z,16.33
2022-12-08T15:35:57.965Z,17.00
2022-12-08T15:38:31.704Z,14.50
2022-12-08T15:41:00.824Z,16.25
2022-12-08T15:43:32.113Z,16.00
2022-12-08T15:46:00.732Z,14.50
2022-12-08T15:48:30.145Z,16.50
2022-12-08T15:50:59.051Z,14.50
2022-12-08T15:53:27.223Z,15.50
2022-12-08T15:56:27.091Z,17.50
2022-12-08T15:58:53.719Z,16.00
2022-12-08T16:01:24.160Z,16.33
2022-12-08T16:04:36.778Z,15.00
2022-12-08T16:09:39.004Z,16.25
2022-12-08T16:18:17.356Z,17.33
2022-12-08T16:23:42.982Z,17.00
2022-12-08T16:26:44.391Z,17.75
2022-12-08T16:29:07.038Z,17.25
2022-12-08T16:31:35.788Z,18.25
2022-12-08T16:34:04.476Z,17.33
2022-12-08T16:36:32.870Z,16.25
2022-12-08T16:39:01.443Z,18.25
2022-12-08T16:41:48.499Z,18.25
2022-12-08T16:44:18.149Z,18.33
2022-12-08T16:46:46.483Z,17.00
2022-12-08T16:49:15.827Z,19.00
2022-12-08T16:51:44.241Z,16.50
2022-12-08T16:54:12.893Z,17.50
2022-12-08T16:56:41.214Z,16.75
2022-12-08T16:59:09.847Z,17.75
2022-12-08T17:01:38.232Z,18.25
2022-12-08T17:04:30.624Z,18.00
2022-12-08T17:06:55.289Z,18.25
2022-12-08T17:09:24.741Z,17.25
2022-12-08T17:11:53.056Z,17.50
2022-12-08T17:14:22.788Z,19.00
2022-12-08T17:16:51.344Z,17.00
2022-12-08T17:19:20.139Z,16.75
2022-12-08T17:21:48.497Z,17.25
2022-12-08T17:24:21.904Z,17.33
2022-12-08T17:26:52.179Z,18.25
2022-12-08T17:29:22.368Z,17.25
2022-12-08T17:31:51.747Z,16.67
2022-12-08T17:34:21.655Z,17.75
2022-12-08T17:36:50.287Z,16.50
2022-12-08T17:39:19.489Z,16.67
2022-12-08T17:41:48.183Z,18.50
2022-12-08T17:44:19.090Z,18.67
2022-12-08T17:46:52.537Z,19.00
2022-12-08T17:49:30.483Z,18.33
2022-12-08T17:52:04.052Z,17.50
2022-12-08T17:54:34.388Z,17.75
2022-12-08T17:57:02.911Z,17.67
2022-12-08T17:59:31.860Z,20.00
2022-12-08T18:02:00.394Z,20.00
2022-12-08T18:04:29.278Z,20.00
2022-12-08T18:07:00.532Z,19.75
2022-12-08T18:09:31.319Z,19.75
2022-12-08T18:12:00.074Z,19.00
2022-12-08T18:14:29.314Z,19.00
2022-12-08T18:16:57.681Z,20.25
2022-12-08T18:19:26.607Z,18.33
2022-12-08T18:21:54.908Z,20.67
2022-12-08T18:24:24.085Z,18.50
2022-12-08T18:26:52.877Z,19.50
2022-12-08T18:29:23.968Z,17.50
2022-12-08T18:31:53.202Z,18.00
2022-12-08T18:34:22.008Z,21.50
2022-12-08T18:36:50.330Z,20.33
2022-12-08T18:39:25.742Z,18.00
2022-12-08T18:41:54.186Z,18.00
2022-12-08T18:44:24.313Z,19.00
2022-12-08T18:46:53.304Z,20.25
2022-12-08T18:49:23.279Z,20.00
2022-12-08T18:51:51.599Z,21.00
2022-12-08T18:54:22.146Z,20.25
2022-12-08T18:56:55.930Z,19.00
2022-12-08T18:59:25.528Z,20.33
2022-12-08T19:01:53.707Z,19.50
2022-12-08T19:04:29.921Z,20.33
2022-12-08T19:06:58.993Z,20.00
2022-12-08T19:09:29.177Z,20.25
2022-12-08T19:11:57.815Z,18.50
2022-12-08T19:14:28.809Z,20.25
2022-12-08T19:16:57.956Z,19.75
2022-12-08T19:19:27.596Z,19.50
2022-12-08T19:21:56.740Z,19.00
2022-12-08T19:24:25.569Z,18.75
2022-12-08T19:26:53.840Z,19.00
2022-12-08T19:29:22.408Z,18.00
2022-12-08T19:31:50.930Z,18.33
2022-12-08T19:34:19.920Z,19.50
2022-12-08T19:36:48.472Z,20.75
2022-12-08T19:39:37.938Z,19.50
2022-12-08T19:42:45.136Z,18.67
2022-12-08T19:45:17.483Z,19.33
2022-12-08T19:47:45.912Z,20.75
2022-12-08T19:50:35.833Z,19.00
2022-12-08T19:53:09.946Z,18.75
2022-12-08T19:55:38.685Z,18.00
2022-12-08T19:58:07.238Z,19.75
2022-12-08T20:00:38.615Z,19.00
2022-12-08T20:03:07.776Z,17.75
2022-12-08T20:05:37.251Z,19.25
2022-12-08T20:08:06.277Z,18.75
2022-12-08T20:10:39.168Z,19.00
2022-12-08T20:13:27.237Z,18.75
2022-12-08T20:15:57.959Z,19.33
2022-12-08T20:18:26.278Z,20.00
2022-12-08T20:20:55.097Z,18.00
2022-12-08T20:23:23.614Z,18.00
2022-12-08T20:25:52.441Z,18.75
2022-12-08T20:28:20.912Z,18.00
2022-12-08T20:30:49.532Z,18.00
2022-12-08T20:33:19.315Z,18.50
2022-12-08T20:35:48.693Z,18.75
2022-12-08T20:38:17.421Z,18.75
2022-12-08T20:40:47.720Z,16.75
2022-12-08T20:43:16.205Z,17.50
2022-12-08T20:45:44.481Z,18.50
2022-12-08T20:48:14.164Z,17.00
2022-12-08T20:50:43.172Z,18.50
2022-12-08T20:53:11.849Z,17.25
2022-12-08T20:55:43.004Z,17.75
2022-12-08T20:58:12.322Z,16.25
2022-12-08T21:00:40.759Z,16.50
2022-12-08T21:03:09.807Z,17.00
2022-12-08T21:05:39.091Z,17.33
2022-12-08T21:08:08.100Z,18.50
2022-12-08T21:10:42.199Z,18.00
2022-12-08T21:13:13.619Z,16.67
2022-12-08T21:15:46.057Z,18.00
2022-12-08T21:18:17.106Z,17.50
2022-12-08T21:20:45.513Z,17.00
2022-12-08T21:23:14.384Z,17.33
2022-12-08T21:25:44.885Z,18.50
2022-12-08T21:28:15.687Z,17.75
2022-12-08T21:30:45.938Z,18.00
2022-12-08T21:33:14.831Z,16.25
2022-12-08T21:35:44.041Z,18.25
2022-12-08T21:38:12.759Z,17.33
2022-12-08T21:40:40.988Z,17.75
2022-12-08T21:43:09.749Z,17.50
2022-12-08T21:45:38.378Z,17.50
2022-12-08T21:48:11.990Z,16.00
2022-12-08T21:50:40.831Z,19.25
2022-12-08T21:53:09.821Z,18.00
2022-12-08T21:55:39.165Z,17.75
2022-12-08T21:58:07.899Z,18.25
2022-12-08T22:00:36.360Z,16.75
2022-12-08T22:03:06.829Z,17.25
2022-12-08T22:05:36.180Z,16.75
2022-12-08T22:08:06.138Z,19.00
2022-12-08T22:10:34.972Z,18.50
2022-12-08T22:13:03.654Z,16.00
2022-12-08T22:15:33.139Z,18.00
2022-12-08T22:18:02.055Z,17.25
2022-12-08T22:20:30.498Z,18.25
2022-12-08T22:22:59.388Z,18.33
2022-12-08T22:25:28.033Z,16.25
2022-12-08T22:27:56.642Z,17.00
2022-12-08T22:30:25.136Z,18.00
2022-12-08T22:32:54.189Z,19.00
2022-12-08T22:35:22.944Z,18.75
2022-12-08T22:37:51.705Z,18.25
2022-12-08T22:40:20.162Z,17.75
2022-12-08T22:42:48.804Z,17.75
2022-12-08T22:45:17.104Z,17.50
2022-12-08T22:47:45.823Z,17.33
2022-12-08T22:50:14.156Z,20.00
2022-12-08T22:52:42.634Z,18.50
2022-12-08T22:55:10.767Z,18.00
2022-12-08T22:57:40.586Z,18.50
2022-12-08T23:00:11.952Z,19.25
2022-12-08T23:02:40.823Z,17.50
2022-12-08T23:05:09.826Z,18.00
2022-12-08T23:07:39.543Z,16.67
2022-12-08T23:10:09.622Z,18.25
2022-12-08T23:12:39.335Z,19.50
2022-12-08T23:15:08.274Z,19.00
2022-12-08T23:17:37.246Z,18.00
2022-12-08T23:20:07.100Z,19.00
2022-12-08T23:22:36.104Z,19.25
2022-12-08T23:25:05.264Z,18.75
2022-12-08T23:27:34.341Z,16.00
2022-12-08T23:30:06.016Z,19.00
2022-12-08T23:32:35.058Z,18.25
2022-12-08T23:35:04.615Z,18.50
2022-12-08T23:37:33.175Z,20.25
2022-12-08T23:40:01.502Z,19.25
2022-12-08T23:42:30.673Z,15.75
2022-12-08T23:44:59.053Z,18.00
2022-12-08T23:47:28.990Z,18.00
2022-12-08T23:49:57.736Z,19.00
2022-12-08T23:52:27.187Z,16.75
2022-12-08T23:54:56.123Z,19.75
2022-12-08T23:57:25.003Z,17.50
2022-12-08T23:59:53.517Z,19.25
